sensor_id;sensor_type;location;lat;lon;timestamp;pressure;altitude;pressure_sealevel;temperature;humidity
37610;BME280;23457;51.966;8.230;2023-11-21T00:02:23;100349.72;;;7.00;100.00
37610;BME280;23457;51.966;8.230;2023-11-21T00:04:50;100357.38;;;6.95;100.00
37610;BME280;23457;51.966;8.230;2023-11-21T00:07:17;100355.66;;;6.96;100.00
37610;BME280;23457;51.966;8.230;2023-11-21T00:09:44;100352.56;;;7.10;100.00
37610;BME280;23457;51.966;8.230;2023-11-21T00:12:11;100352.50;;;7.07;100.00
37610;BME280;23457;51.966;8.230;2023-11-21T00:14:37;100352.34;;;7.01;100.00
37610;BME280;23457;51.966;8.230;2023-11-21T00:17:05;100356.13;;;7.15;100.00
37610;BME280;23457;51.966;8.230;2023-11-21T00:19:32;100352.97;;;7.27;100.00
37610;BME280;23457;51.966;8.230;2023-11-21T00:22:02;100361.41;;;7.20;100.00
37610;BME280;23457;51.966;8.230;2023-11-21T00:24:29;100358.88;;;7.23;100.00
37610;BME280;23457;51.966;8.230;2023-11-21T00:26:55;100363.34;;;7.29;100.00
37610;BME280;23457;51.966;8.230;2023-11-21T00:29:23;100367.88;;;7.39;100.00
37610;BME280;23457;51.966;8.230;2023-11-21T00:31:50;100372.72;;;7.25;100.00
37610;BME280;23457;51.966;8.230;2023-11-21T00:34:17;100352.41;;;7.40;100.00
37610;BME280;23457;51.966;8.230;2023-11-21T00:36:44;100358.00;;;7.21;100.00
37610;BME280;23457;51.966;8.230;2023-11-21T00:39:11;100366.94;;;7.35;100.00
37610;BME280;23457;51.966;8.230;2023-11-21T00:41:39;100362.66;;;7.37;100.00
37610;BME280;23457;51.966;8.230;2023-11-21T00:44:06;100361.84;;;7.38;100.00
37610;BME280;23457;51.966;8.230;2023-11-21T00:46:33;100364.56;;;7.44;100.00
37610;BME280;23457;51.966;8.230;2023-11-21T00:49:00;100361.72;;;7.32;100.00
37610;BME280;23457;51.966;8.230;2023-11-21T00:51:27;100358.59;;;7.47;100.00
37610;BME280;23457;51.966;8.230;2023-11-21T00:53:54;100361.25;;;7.50;100.00
37610;BME280;23457;51.966;8.230;2023-11-21T00:56:20;100358.69;;;7.51;100.00
37610;BME280;23457;51.966;8.230;2023-11-21T00:58:48;100361.47;;;7.61;100.00
37610;BME280;23457;51.966;8.230;2023-11-21T01:01:19;100378.53;;;7.52;100.00
37610;BME280;23457;51.966;8.230;2023-11-21T01:03:46;100375.16;;;7.55;100.00
37610;BME280;23457;51.966;8.230;2023-11-21T01:06:13;100369.22;;;7.59;100.00
37610;BME280;23457;51.966;8.230;2023-11-21T01:08:42;100386.56;;;7.65;100.00
37610;BME280;23457;51.966;8.230;2023-11-21T01:11:10;100380.53;;;7.64;100.00
37610;BME280;23457;51.966;8.230;2023-11-21T01:13:39;100378.66;;;7.57;100.00
37610;BME280;23457;51.966;8.230;2023-11-21T01:16:07;100380.50;;;7.63;100.00
37610;BME280;23457;51.966;8.230;2023-11-21T01:18:35;100376.06;;;7.57;100.00
37610;BME280;23457;51.966;8.230;2023-11-21T01:21:01;100379.56;;;7.59;100.00
37610;BME280;23457;51.966;8.230;2023-11-21T01:23:28;100377.91;;;7.63;100.00
37610;BME280;23457;51.966;8.230;2023-11-21T01:25:56;100384.34;;;7.80;100.00
37610;BME280;23457;51.966;8.230;2023-11-21T01:28:23;100385.13;;;7.77;100.00
37610;BME280;23457;51.966;8.230;2023-11-21T01:30:50;100382.69;;;7.83;100.00
37610;BME280;23457;51.966;8.230;2023-11-21T01:33:18;100387.13;;;7.89;100.00
37610;BME280;23457;51.966;8.230;2023-11-21T01:35:45;100384.53;;;7.89;100.00
37610;BME280;23457;51.966;8.230;2023-11-21T01:38:13;100387.06;;;7.87;100.00
37610;BME280;23457;51.966;8.230;2023-11-21T01:40:40;100385.38;;;7.88;100.00
37610;BME280;23457;51.966;8.230;2023-11-21T01:43:07;100388.03;;;7.91;100.00
37610;BME280;23457;51.966;8.230;2023-11-21T01:45:35;100387.22;;;7.94;100.00
37610;BME280;23457;51.966;8.230;2023-11-21T01:48:02;100388.09;;;7.94;100.00
37610;BME280;23457;51.966;8.230;2023-11-21T01:50:30;100386.19;;;7.87;100.00
37610;BME280;23457;51.966;8.230;2023-11-21T01:52:57;100391.53;;;7.93;100.00
37610;BME280;23457;51.966;8.230;2023-11-21T01:55:24;100384.78;;;8.01;100.00
37610;BME280;23457;51.966;8.230;2023-11-21T01:57:55;100388.22;;;8.00;100.00
37610;BME280;23457;51.966;8.230;2023-11-21T02:00:24;100389.63;;;7.86;100.00
37610;BME280;23457;51.966;8.230;2023-11-21T02:02:51;100390.78;;;8.00;100.00
37610;BME280;23457;51.966;8.230;2023-11-21T02:05:19;100393.28;;;7.94;100.00
37610;BME280;23457;51.966;8.230;2023-11-21T02:07:48;100396.88;;;8.02;100.00
37610;BME280;23457;51.966;8.230;2023-11-21T02:10:15;100399.09;;;7.85;100.00
37610;BME280;23457;51.966;8.230;2023-11-21T02:12:43;100401.75;;;7.88;100.00
37610;BME280;23457;51.966;8.230;2023-11-21T02:15:15;100400.13;;;7.92;100.00
37610;BME280;23457;51.966;8.230;2023-11-21T02:17:47;100401.81;;;7.90;100.00
37610;BME280;23457;51.966;8.230;2023-11-21T02:20:19;100412.91;;;7.86;100.00
37610;BME280;23457;51.966;8.230;2023-11-21T02:22:53;100413.78;;;7.85;100.00
37610;BME280;23457;51.966;8.230;2023-11-21T02:25:32;100410.59;;;7.98;100.00
37610;BME280;23457;51.966;8.230;2023-11-21T02:28:00;100418.28;;;7.94;100.00
37610;BME280;23457;51.966;8.230;2023-11-21T02:30:27;100428.34;;;7.81;100.00
37610;BME280;23457;51.966;8.230;2023-11-21T02:32:55;100424.75;;;7.75;100.00
37610;BME280;23457;51.966;8.230;2023-11-21T02:35:24;100417.41;;;7.93;100.00
37610;BME280;23457;51.966;8.230;2023-11-21T02:37:54;100425.34;;;8.02;100.00
37610;BME280;23457;51.966;8.230;2023-11-21T02:40:21;100430.44;;;7.99;100.00
37610;BME280;23457;51.966;8.230;2023-11-21T02:42:49;100426.34;;;8.07;100.00
37610;BME280;23457;51.966;8.230;2023-11-21T02:45:20;100431.28;;;7.98;100.00
37610;BME280;23457;51.966;8.230;2023-11-21T02:47:48;100433.00;;;7.96;100.00
37610;BME280;23457;51.966;8.230;2023-11-21T02:50:16;100433.03;;;7.99;100.00
37610;BME280;23457;51.966;8.230;2023-11-21T02:52:45;100432.53;;;8.15;100.00
37610;BME280;23457;51.966;8.230;2023-11-21T02:55:13;100433.38;;;8.14;100.00
37610;BME280;23457;51.966;8.230;2023-11-21T02:57:40;100434.25;;;8.15;100.00
37610;BME280;23457;51.966;8.230;2023-11-21T03:00:07;100433.25;;;8.08;100.00
37610;BME280;23457;51.966;8.230;2023-11-21T03:02:34;100432.44;;;8.11;100.00
37610;BME280;23457;51.966;8.230;2023-11-21T03:05:06;100440.44;;;8.21;100.00
37610;BME280;23457;51.966;8.230;2023-11-21T03:07:38;100437.88;;;8.21;100.00
37610;BME280;23457;51.966;8.230;2023-11-21T03:10:07;100434.19;;;8.10;100.00
37610;BME280;23457;51.966;8.230;2023-11-21T03:12:40;100439.53;;;8.19;100.00
37610;BME280;23457;51.966;8.230;2023-11-21T03:15:07;100447.31;;;8.19;100.00
37610;BME280;23457;51.966;8.230;2023-11-21T03:17:35;100445.47;;;8.15;100.00
37610;BME280;23457;51.966;8.230;2023-11-21T03:20:02;100448.84;;;8.11;100.00
37610;BME280;23457;51.966;8.230;2023-11-21T03:22:30;100442.91;;;8.15;100.00
37610;BME280;23457;51.966;8.230;2023-11-21T03:24:58;100447.91;;;8.08;100.00
37610;BME280;23457;51.966;8.230;2023-11-21T03:27:25;100457.41;;;8.07;100.00
37610;BME280;23457;51.966;8.230;2023-11-21T03:29:52;100460.09;;;8.13;100.00
37610;BME280;23457;51.966;8.230;2023-11-21T03:32:21;100457.66;;;8.19;100.00
37610;BME280;23457;51.966;8.230;2023-11-21T03:34:57;100462.69;;;8.13;100.00
37610;BME280;23457;51.966;8.230;2023-11-21T03:37:25;100469.72;;;8.19;100.00
37610;BME280;23457;51.966;8.230;2023-11-21T03:39:55;100474.94;;;8.20;100.00
37610;BME280;23457;51.966;8.230;2023-11-21T03:42:23;100468.88;;;8.20;100.00
37610;BME280;23457;51.966;8.230;2023-11-21T03:44:50;100469.81;;;8.23;100.00
37610;BME280;23457;51.966;8.230;2023-11-21T03:47:17;100472.28;;;8.17;100.00
37610;BME280;23457;51.966;8.230;2023-11-21T03:49:46;100481.72;;;8.15;100.00
37610;BME280;23457;51.966;8.230;2023-11-21T03:52:15;100485.94;;;8.10;100.00
37610;BME280;23457;51.966;8.230;2023-11-21T03:54:42;100492.22;;;8.21;100.00
37610;BME280;23457;51.966;8.230;2023-11-21T03:57:10;100490.53;;;8.23;100.00
37610;BME280;23457;51.966;8.230;2023-11-21T03:59:40;100490.53;;;8.23;100.00
37610;BME280;23457;51.966;8.230;2023-11-21T04:02:07;100499.72;;;8.11;100.00
37610;BME280;23457;51.966;8.230;2023-11-21T04:04:35;100495.44;;;8.11;100.00
37610;BME280;23457;51.966;8.230;2023-11-21T04:07:02;100496.50;;;8.19;100.00
37610;BME280;23457;51.966;8.230;2023-11-21T04:09:29;100500.75;;;8.17;100.00
37610;BME280;23457;51.966;8.230;2023-11-21T04:11:56;100511.59;;;8.01;100.00
37610;BME280;23457;51.966;8.230;2023-11-21T04:14:23;100515.94;;;8.02;100.00
37610;BME280;23457;51.966;8.230;2023-11-21T04:16:50;100518.03;;;8.18;100.00
37610;BME280;23457;51.966;8.230;2023-11-21T04:19:16;100524.63;;;8.04;100.00
37610;BME280;23457;51.966;8.230;2023-11-21T04:21:43;100530.38;;;7.93;100.00
37610;BME280;23457;51.966;8.230;2023-11-21T04:24:10;100520.41;;;7.73;100.00
37610;BME280;23457;51.966;8.230;2023-11-21T04:26:37;100522.66;;;7.94;100.00
37610;BME280;23457;51.966;8.230;2023-11-21T04:29:04;100516.97;;;8.09;100.00
37610;BME280;23457;51.966;8.230;2023-11-21T04:31:31;100517.56;;;7.97;100.00
37610;BME280;23457;51.966;8.230;2023-11-21T04:33:58;100521.88;;;7.97;100.00
37610;BME280;23457;51.966;8.230;2023-11-21T04:36:25;100520.75;;;7.87;100.00
37610;BME280;23457;51.966;8.230;2023-11-21T04:38:52;100516.44;;;7.87;100.00
37610;BME280;23457;51.966;8.230;2023-11-21T04:41:19;100518.06;;;7.82;100.00
37610;BME280;23457;51.966;8.230;2023-11-21T04:43:46;100532.00;;;7.89;100.00
37610;BME280;23457;51.966;8.230;2023-11-21T04:46:13;100535.13;;;7.76;100.00
37610;BME280;23457;51.966;8.230;2023-11-21T04:48:40;100531.03;;;7.84;100.00
37610;BME280;23457;51.966;8.230;2023-11-21T04:51:07;100525.03;;;7.86;100.00
37610;BME280;23457;51.966;8.230;2023-11-21T04:53:33;100521.63;;;7.87;100.00
37610;BME280;23457;51.966;8.230;2023-11-21T04:56:01;100530.41;;;7.94;100.00
37610;BME280;23457;51.966;8.230;2023-11-21T04:58:27;100525.56;;;7.72;100.00
37610;BME280;23457;51.966;8.230;2023-11-21T05:00:54;100523.28;;;7.85;100.00
37610;BME280;23457;51.966;8.230;2023-11-21T05:03:21;100538.72;;;7.81;100.00
37610;BME280;23457;51.966;8.230;2023-11-21T05:05:50;100527.09;;;7.64;100.00
37610;BME280;23457;51.966;8.230;2023-11-21T05:08:17;100536.22;;;7.84;100.00
37610;BME280;23457;51.966;8.230;2023-11-21T05:10:43;100541.59;;;7.93;100.00
37610;BME280;23457;51.966;8.230;2023-11-21T05:13:10;100538.09;;;7.91;100.00
37610;BME280;23457;51.966;8.230;2023-11-21T05:15:37;100543.44;;;7.99;100.00
37610;BME280;23457;51.966;8.230;2023-11-21T05:18:05;100538.09;;;7.91;100.00
37610;BME280;23457;51.966;8.230;2023-11-21T05:20:33;100545.16;;;7.98;100.00
37610;BME280;23457;51.966;8.230;2023-11-21T05:22:59;100543.44;;;7.99;100.00
37610;BME280;23457;51.966;8.230;2023-11-21T05:25:26;100545.19;;;7.64;100.00
37610;BME280;23457;51.966;8.230;2023-11-21T05:27:53;100554.34;;;7.84;100.00
37610;BME280;23457;51.966;8.230;2023-11-21T05:30:21;100552.72;;;7.89;100.00
37610;BME280;23457;51.966;8.230;2023-11-21T05:32:48;100555.25;;;7.87;100.00
37610;BME280;23457;51.966;8.230;2023-11-21T05:35:16;100553.50;;;7.86;100.00
37610;BME280;23457;51.966;8.230;2023-11-21T05:37:47;100555.50;;;7.98;100.00
37610;BME280;23457;51.966;8.230;2023-11-21T05:40:14;100556.84;;;7.81;100.00
37610;BME280;23457;51.966;8.230;2023-11-21T05:42:41;100555.16;;;7.83;100.00
37610;BME280;23457;51.966;8.230;2023-11-21T05:45:08;100556.91;;;7.84;100.00
37610;BME280;23457;51.966;8.230;2023-11-21T05:47:43;100551.78;;;7.87;100.00
37610;BME280;23457;51.966;8.230;2023-11-21T05:50:12;100544.75;;;7.80;100.00
37610;BME280;23457;51.966;8.230;2023-11-21T05:52:45;100548.91;;;7.75;100.00
37610;BME280;23457;51.966;8.230;2023-11-21T05:55:12;100559.00;;;7.64;100.00
37610;BME280;23457;51.966;8.230;2023-11-21T05:57:41;100560.03;;;7.71;100.00
37610;BME280;23457;51.966;8.230;2023-11-21T06:00:10;100563.75;;;7.82;100.00
37610;BME280;23457;51.966;8.230;2023-11-21T06:02:42;100581.09;;;7.86;100.00
37610;BME280;23457;51.966;8.230;2023-11-21T06:05:13;100588.91;;;7.87;100.00
37610;BME280;23457;51.966;8.230;2023-11-21T06:07:39;100595.03;;;7.91;100.00
37610;BME280;23457;51.966;8.230;2023-11-21T06:10:08;100602.66;;;7.86;100.00
37610;BME280;23457;51.966;8.230;2023-11-21T06:12:37;100602.00;;;7.94;100.00
37610;BME280;23457;51.966;8.230;2023-11-21T06:15:05;100603.66;;;7.91;100.00
37610;BME280;23457;51.966;8.230;2023-11-21T06:17:36;100604.69;;;7.97;100.00
37610;BME280;23457;51.966;8.230;2023-11-21T06:20:05;100617.09;;;7.77;100.00
37610;BME280;23457;51.966;8.230;2023-11-21T06:22:37;100619.38;;;7.99;100.00
37610;BME280;23457;51.966;8.230;2023-11-21T06:25:05;100623.72;;;8.00;100.00
37610;BME280;23457;51.966;8.230;2023-11-21T06:27:38;100628.06;;;8.01;100.00
37610;BME280;23457;51.966;8.230;2023-11-21T06:30:06;100629.69;;;7.96;100.00
37610;BME280;23457;51.966;8.230;2023-11-21T06:32:36;100638.56;;;8.07;100.00
37610;BME280;23457;51.966;8.230;2023-11-21T06:35:04;100643.75;;;8.07;100.00
37610;BME280;23457;51.966;8.230;2023-11-21T06:37:31;100643.38;;;7.92;100.00
37610;BME280;23457;51.966;8.230;2023-11-21T06:39:59;100650.59;;;8.05;100.00
37610;BME280;23457;51.966;8.230;2023-11-21T06:42:26;100648.75;;;8.01;100.00
37610;BME280;23457;51.966;8.230;2023-11-21T06:44:54;100649.28;;;7.88;100.00
37610;BME280;23457;51.966;8.230;2023-11-21T06:47:24;100660.13;;;8.06;100.00
37610;BME280;23457;51.966;8.230;2023-11-21T06:49:52;100663.47;;;8.02;100.00
37610;BME280;23457;51.966;8.230;2023-11-21T06:52:19;100658.19;;;7.98;100.00
37610;BME280;23457;51.966;8.230;2023-11-21T06:54:47;100667.19;;;8.13;100.00
37610;BME280;23457;51.966;8.230;2023-11-21T06:57:14;100673.38;;;8.18;100.00
37610;BME280;23457;51.966;8.230;2023-11-21T06:59:41;100673.50;;;8.24;100.00
37610;BME280;23457;51.966;8.230;2023-11-21T07:02:08;100681.22;;;8.21;100.00
37610;BME280;23457;51.966;8.230;2023-11-21T07:04:36;100680.38;;;8.22;100.00
37610;BME280;23457;51.966;8.230;2023-11-21T07:07:04;100685.63;;;8.25;100.00
37610;BME280;23457;51.966;8.230;2023-11-21T07:09:31;100683.81;;;8.21;100.00
37610;BME280;23457;51.966;8.230;2023-11-21T07:11:57;100688.03;;;8.18;100.00
37610;BME280;23457;51.966;8.230;2023-11-21T07:14:24;100695.38;;;8.34;100.00
37610;BME280;23457;51.966;8.230;2023-11-21T07:16:51;100697.59;;;8.20;100.00
37610;BME280;23457;51.966;8.230;2023-11-21T07:19:19;100700.69;;;8.07;100.00
37610;BME280;23457;51.966;8.230;2023-11-21T07:21:46;100702.50;;;8.10;100.00
37610;BME280;23457;51.966;8.230;2023-11-21T07:24:13;100710.34;;;8.14;100.00
37610;BME280;23457;51.966;8.230;2023-11-21T07:26:40;100713.38;;;7.98;100.00
37610;BME280;23457;51.966;8.230;2023-11-21T07:29:08;100711.19;;;8.13;100.00
37610;BME280;23457;51.966;8.230;2023-11-21T07:31:35;100713.69;;;8.09;100.00
37610;BME280;23457;51.966;8.230;2023-11-21T07:34:02;100723.38;;;8.17;100.00
37610;BME280;23457;51.966;8.230;2023-11-21T07:36:28;100721.53;;;8.13;100.00
37610;BME280;23457;51.966;8.230;2023-11-21T07:38:55;100725.16;;;8.18;100.00
37610;BME280;23457;51.966;8.230;2023-11-21T07:41:22;100733.75;;;8.17;100.00
37610;BME280;23457;51.966;8.230;2023-11-21T07:43:57;100742.66;;;7.96;100.00
37610;BME280;23457;51.966;8.230;2023-11-21T07:46:26;100740.75;;;8.21;100.00
37610;BME280;23457;51.966;8.230;2023-11-21T07:48:53;100738.50;;;8.02;100.00
37610;BME280;23457;51.966;8.230;2023-11-21T07:51:21;100736.81;;;8.03;100.00
37610;BME280;23457;51.966;8.230;2023-11-21T07:53:49;100738.69;;;8.08;100.00
37610;BME280;23457;51.966;8.230;2023-11-21T07:56:16;100744.06;;;8.16;100.00
37610;BME280;23457;51.966;8.230;2023-11-21T07:58:43;100736.66;;;7.97;100.00
37610;BME280;23457;51.966;8.230;2023-11-21T08:01:11;100745.09;;;8.22;100.00
37610;BME280;23457;51.966;8.230;2023-11-21T08:03:38;100743.78;;;8.05;100.00
37610;BME280;23457;51.966;8.230;2023-11-21T08:06:05;100750.72;;;8.06;100.00
37610;BME280;23457;51.966;8.230;2023-11-21T08:08:32;100746.00;;;8.24;100.00
37610;BME280;23457;51.966;8.230;2023-11-21T08:10:59;100753.50;;;8.14;100.00
37610;BME280;23457;51.966;8.230;2023-11-21T08:13:29;100744.63;;;8.36;100.00
37610;BME280;23457;51.966;8.230;2023-11-21T08:15:58;100757.84;;;8.15;100.00
37610;BME280;23457;51.966;8.230;2023-11-21T08:18:29;100754.53;;;8.20;100.00
37610;BME280;23457;51.966;8.230;2023-11-21T08:20:56;100749.94;;;8.09;100.00
37610;BME280;23457;51.966;8.230;2023-11-21T08:23:23;100760.63;;;8.22;100.00
37610;BME280;23457;51.966;8.230;2023-11-21T08:25:53;100767.72;;;8.30;100.00
37610;BME280;23457;51.966;8.230;2023-11-21T08:28:21;100773.84;;;8.32;100.00
37610;BME280;23457;51.966;8.230;2023-11-21T08:30:52;100781.00;;;8.42;100.00
37610;BME280;23457;51.966;8.230;2023-11-21T08:33:20;100778.84;;;8.58;100.00
37610;BME280;23457;51.966;8.230;2023-11-21T08:35:47;100783.69;;;8.45;100.00
37610;BME280;23457;51.966;8.230;2023-11-21T08:38:14;100788.94;;;8.16;100.00
37610;BME280;23457;51.966;8.230;2023-11-21T08:40:40;100793.56;;;8.28;100.00
37610;BME280;23457;51.966;8.230;2023-11-21T08:43:07;100796.59;;;8.43;100.00
37610;BME280;23457;51.966;8.230;2023-11-21T08:45:34;100795.03;;;8.50;100.00
37610;BME280;23457;51.966;8.230;2023-11-21T08:48:02;100802.41;;;8.68;100.00
37610;BME280;23457;51.966;8.230;2023-11-21T08:50:29;100814.00;;;8.49;100.00
37610;BME280;23457;51.966;8.230;2023-11-21T08:52:56;100813.28;;;8.54;100.00
37610;BME280;23457;51.966;8.230;2023-11-21T08:55:23;100819.44;;;8.58;100.00
37610;BME280;23457;51.966;8.230;2023-11-21T08:57:49;100829.94;;;8.64;100.00
37610;BME280;23457;51.966;8.230;2023-11-21T09:00:17;100830.47;;;8.51;100.00
37610;BME280;23457;51.966;8.230;2023-11-21T09:02:45;100833.53;;;8.69;100.00
37610;BME280;23457;51.966;8.230;2023-11-21T09:05:14;100828.44;;;8.72;100.00
37610;BME280;23457;51.966;8.230;2023-11-21T09:07:41;100835.28;;;8.70;100.00
37610;BME280;23457;51.966;8.230;2023-11-21T09:10:10;100839.81;;;8.79;100.00
37610;BME280;23457;51.966;8.230;2023-11-21T09:12:37;100838.94;;;8.78;100.00
37610;BME280;23457;51.966;8.230;2023-11-21T09:15:05;100841.44;;;8.74;100.00
37610;BME280;23457;51.966;8.230;2023-11-21T09:17:33;100836.56;;;8.87;100.00
37610;BME280;23457;51.966;8.230;2023-11-21T09:20:01;100838.81;;;8.72;100.00
37610;BME280;23457;51.966;8.230;2023-11-21T09:22:30;100834.63;;;8.79;100.00
37610;BME280;23457;51.966;8.230;2023-11-21T09:24:58;100839.81;;;8.79;100.00
37610;BME280;23457;51.966;8.230;2023-11-21T09:27:25;100840.91;;;8.88;100.00
37610;BME280;23457;51.966;8.230;2023-11-21T09:29:54;100848.78;;;8.91;100.00
37610;BME280;23457;51.966;8.230;2023-11-21T09:32:21;100855.66;;;8.91;100.00
37610;BME280;23457;51.966;8.230;2023-11-21T09:34:49;100859.06;;;8.88;100.00
37610;BME280;23457;51.966;8.230;2023-11-21T09:37:17;100862.16;;;8.75;100.00
37610;BME280;23457;51.966;8.230;2023-11-21T09:39:44;100862.66;;;8.93;100.00
37610;BME280;23457;51.966;8.230;2023-11-21T09:42:13;100879.13;;;8.95;100.00
37610;BME280;23457;51.966;8.230;2023-11-21T09:44:48;100883.63;;;8.70;100.00
37610;BME280;23457;51.966;8.230;2023-11-21T09:47:17;100884.69;;;8.78;100.00
37610;BME280;23457;51.966;8.230;2023-11-21T09:49:48;100881.50;;;8.86;100.00
37610;BME280;23457;51.966;8.230;2023-11-21T09:52:24;100887.25;;;8.76;100.00
37610;BME280;23457;51.966;8.230;2023-11-21T09:54:53;100894.84;;;8.69;100.00
37610;BME280;23457;51.966;8.230;2023-11-21T09:57:21;100902.19;;;8.85;100.00
37610;BME280;23457;51.966;8.230;2023-11-21T09:59:51;100902.97;;;8.82;100.00
37610;BME280;23457;51.966;8.230;2023-11-21T10:02:26;100898.31;;;9.04;100.00
37610;BME280;23457;51.966;8.230;2023-11-21T10:04:55;100896.44;;;8.96;100.00
37610;BME280;23457;51.966;8.230;2023-11-21T10:07:23;100904.25;;;8.99;100.00
37610;BME280;23457;51.966;8.230;2023-11-21T10:09:51;100907.38;;;8.85;100.00
37610;BME280;23457;51.966;8.230;2023-11-21T10:12:18;100903.75;;;8.80;100.00
37610;BME280;23457;51.966;8.230;2023-11-21T10:14:49;100913.03;;;8.70;100.00
37610;BME280;23457;51.966;8.230;2023-11-21T10:17:17;100917.16;;;8.63;100.00
37610;BME280;23457;51.966;8.230;2023-11-21T10:19:48;100918.28;;;8.73;100.00
37610;BME280;23457;51.966;8.230;2023-11-21T10:22:15;100918.66;;;8.88;100.00
37610;BME280;23457;51.966;8.230;2023-11-21T10:24:43;100920.09;;;8.77;100.00
37610;BME280;23457;51.966;8.230;2023-11-21T10:27:19;100918.28;;;8.73;100.00
37610;BME280;23457;51.966;8.230;2023-11-21T10:29:46;100920.94;;;8.76;100.00
37610;BME280;23457;51.966;8.230;2023-11-21T10:32:12;100917.88;;;8.58;100.00
37610;BME280;23457;51.966;8.230;2023-11-21T10:34:39;100913.09;;;8.73;100.00
37610;BME280;23457;51.966;8.230;2023-11-21T10:37:11;100915.09;;;8.83;100.00
37610;BME280;23457;51.966;8.230;2023-11-21T10:39:39;100916.50;;;8.71;100.00
37610;BME280;23457;51.966;8.230;2023-11-21T10:42:08;100920.78;;;8.70;100.00
37610;BME280;23457;51.966;8.230;2023-11-21T10:44:36;100926.03;;;8.72;100.00
37610;BME280;23457;51.966;8.230;2023-11-21T10:47:04;100927.78;;;8.74;100.00
37610;BME280;23457;51.966;8.230;2023-11-21T10:49:32;100933.41;;;8.58;100.00
37610;BME280;23457;51.966;8.230;2023-11-21T10:51:59;100931.31;;;8.45;100.00
37610;BME280;23457;51.966;8.230;2023-11-21T10:54:26;100930.06;;;8.62;100.00
37610;BME280;23457;51.966;8.230;2023-11-21T10:56:56;100939.84;;;8.72;100.00
37610;BME280;23457;51.966;8.230;2023-11-21T10:59:25;100934.34;;;8.61;100.00
37610;BME280;23457;51.966;8.230;2023-11-21T11:01:57;100942.13;;;8.60;100.00
37610;BME280;23457;51.966;8.230;2023-11-21T11:04:26;100946.13;;;8.80;100.00
37610;BME280;23457;51.966;8.230;2023-11-21T11:06:57;100956.25;;;8.71;100.00
37610;BME280;23457;51.966;8.230;2023-11-21T11:09:26;100962.41;;;8.76;100.00
37610;BME280;23457;51.966;8.230;2023-11-21T11:11:53;100967.03;;;8.88;100.00
37610;BME280;23457;51.966;8.230;2023-11-21T11:14:20;100960.41;;;8.97;100.00
37610;BME280;23457;51.966;8.230;2023-11-21T11:16:54;100966.28;;;8.92;100.00
37610;BME280;23457;51.966;8.230;2023-11-21T11:19:22;100982.38;;;8.80;100.00
37610;BME280;23457;51.966;8.230;2023-11-21T11:38:06;100989.84;;;8.68;100.00
37610;BME280;23457;51.966;8.230;2023-11-21T11:40:41;100987.06;;;8.62;100.00
37610;BME280;23457;51.966;8.230;2023-11-21T11:43:11;100994.56;;;8.53;100.00
37610;BME280;23457;51.966;8.230;2023-11-21T11:45:38;100997.91;;;8.49;100.00
37610;BME280;23457;51.966;8.230;2023-11-21T11:48:11;100992.03;;;8.54;100.00
37610;BME280;23457;51.966;8.230;2023-11-21T11:51:00;100997.25;;;8.27;100.00
37610;BME280;23457;51.966;8.230;2023-11-21T11:53:35;100987.16;;;8.35;100.00
37610;BME280;23457;51.966;8.230;2023-11-21T11:56:25;101001.06;;;8.10;100.00
37610;BME280;23457;51.966;8.230;2023-11-21T11:58:57;101001.34;;;8.19;100.00
37610;BME280;23457;51.966;8.230;2023-11-21T12:01:26;101011.75;;;8.21;100.00
37610;BME280;23457;51.966;8.230;2023-11-21T12:06:44;101017.31;;;8.33;100.00
37610;BME280;23457;51.966;8.230;2023-11-21T12:09:20;101024.22;;;8.33;100.00
37610;BME280;23457;51.966;8.230;2023-11-21T12:11:53;101022.94;;;8.20;100.00
37610;BME280;23457;51.966;8.230;2023-11-21T12:14:21;101030.81;;;8.24;100.00
37610;BME280;23457;51.966;8.230;2023-11-21T12:16:48;101041.69;;;8.13;100.00
37610;BME280;23457;51.966;8.230;2023-11-21T12:19:15;101041.00;;;8.18;100.00
37610;BME280;23457;51.966;8.230;2023-11-21T12:21:42;101041.16;;;7.96;100.00
37610;BME280;23457;51.966;8.230;2023-11-21T12:24:10;101040.56;;;7.78;100.00
37610;BME280;23457;51.966;8.230;2023-11-21T12:26:41;101043.06;;;8.02;100.00
37610;BME280;23457;51.966;8.230;2023-11-21T12:29:07;101039.41;;;7.95;100.00
37610;BME280;23457;51.966;8.230;2023-11-21T12:31:34;101045.41;;;7.94;100.00
37610;BME280;23457;51.966;8.230;2023-11-21T12:34:02;101052.53;;;8.01;100.00
37610;BME280;23457;51.966;8.230;2023-11-21T12:36:29;101046.84;;;8.13;100.00
37610;BME280;23457;51.966;8.230;2023-11-21T12:38:56;101055.72;;;8.19;100.00
37610;BME280;23457;51.966;8.230;2023-11-21T12:41:23;101058.31;;;7.93;100.00
37610;BME280;23457;51.966;8.230;2023-11-21T12:43:50;101061.34;;;8.06;100.00
37610;BME280;23457;51.966;8.230;2023-11-21T12:46:17;101070.41;;;7.94;100.00
37610;BME280;23457;51.966;8.230;2023-11-21T12:48:45;101075.22;;;8.08;100.00
37610;BME280;23457;51.966;8.230;2023-11-21T12:51:15;101063.75;;;8.02;100.00
37610;BME280;23457;51.966;8.230;2023-11-21T12:53:42;101065.41;;;8.00;100.00
37610;BME280;23457;51.966;8.230;2023-11-21T12:56:13;101066.00;;;7.91;100.00
37610;BME280;23457;51.966;8.230;2023-11-21T12:58:44;101077.69;;;8.05;100.00
37610;BME280;23457;51.966;8.230;2023-11-21T13:01:14;101073.22;;;7.74;100.00
37610;BME280;23457;51.966;8.230;2023-11-21T13:03:48;101085.25;;;7.72;100.00
37610;BME280;23457;51.966;8.230;2023-11-21T13:06:18;101084.91;;;7.63;100.00
37610;BME280;23457;51.966;8.230;2023-11-21T13:08:46;101080.75;;;7.67;100.00
37610;BME280;23457;51.966;8.230;2023-11-21T13:11:13;101093.38;;;7.58;100.00
37610;BME280;23457;51.966;8.230;2023-11-21T13:13:42;101100.78;;;7.47;100.00
37610;BME280;23457;51.966;8.230;2023-11-21T13:16:12;101102.91;;;7.59;100.00